Time;durP1;ratioP1;P1;durP2;ratioP2;P2;SDS_P1;SDS_P2;PMS_P1;PMS_P2;Temp;Humidity;BMP_temperature;BMP_pressure;BME280_temperature;BME280_humidity;BME280_pressure;Samples;Min_cycle;Max_cycle;Signal;HPM_P1;HPM_P2
2021/06/09 00:00:53;;;;;;;18.58;16.98;;;20.90;88.60;;;;;;5035770;28;20798;-89
2021/06/09 00:03:23;;;;;;;20.35;18.75;;;21.00;88.90;;;;;;5037075;28;20239;-89
2021/06/09 00:05:50;;;;;;;18.15;16.75;;;20.80;89.60;;;;;;5037860;28;20454;-89
2021/06/09 00:08:17;;;;;;;19.40;17.77;;;20.70;88.70;;;;;;5021919;28;20299;-90
2021/06/09 00:10:43;;;;;;;21.63;19.63;;;20.70;88.80;;;;;;5037503;28;20552;-89
2021/06/09 00:13:09;;;;;;;19.65;18.15;;;20.60;89.40;;;;;;5036871;28;20199;-89
2021/06/09 00:15:35;;;;;;;18.83;17.25;;;20.60;90.50;;;;;;5036275;28;20200;-88
2021/06/09 00:18:19;;;;;;;19.80;18.20;;;20.60;89.70;;;;;;5040792;28;20180;-90
2021/06/09 00:20:45;;;;;;;17.70;16.20;;;20.80;88.60;;;;;;5040054;28;20179;-90
2021/06/09 00:23:16;;;;;;;18.98;17.55;;;20.70;88.20;;;;;;5044684;28;20208;-89
2021/06/09 00:25:47;;;;;;;20.45;18.58;;;20.90;88.20;;;;;;5042411;28;20185;-89
2021/06/09 00:28:12;;;;;;;19.88;18.38;;;20.80;88.80;;;;;;5017646;28;20181;-91
2021/06/09 00:30:38;;;;;;;20.15;18.33;;;20.80;89.20;;;;;;5020471;28;20208;-90
2021/06/09 00:33:04;;;;;;;20.27;18.63;;;20.80;88.80;;;;;;5019406;28;20225;-90
2021/06/09 00:35:31;;;;;;;21.25;19.45;;;20.80;89.50;;;;;;5035279;28;20184;-90
2021/06/09 00:37:56;;;;;;;19.77;18.17;;;20.70;89.50;;;;;;5035277;28;20755;-90
2021/06/09 00:40:22;;;;;;;19.45;17.83;;;20.70;89.60;;;;;;5036882;28;20173;-91
2021/06/09 00:43:12;;;;;;;21.02;19.33;;;20.70;89.70;;;;;;5036670;28;20685;-91
2021/06/09 00:45:42;;;;;;;20.25;18.27;;;20.80;89.40;;;;;;5040188;28;20169;-91
2021/06/09 00:48:09;;;;;;;20.80;19.17;;;20.70;89.60;;;;;;5036864;28;20165;-91
2021/06/09 00:50:35;;;;;;;20.45;18.65;;;20.80;89.50;;;;;;5036174;28;20201;-91
2021/06/09 00:56:12;;;;;;;18.38;16.75;;;20.70;89.50;;;;;;5014716;28;20181;-89
2021/06/09 00:58:39;;;;;;;18.00;16.63;;;20.60;89.10;;;;;;5032762;28;20199;-90
2021/06/09 01:01:06;;;;;;;20.42;18.80;;;20.60;89.00;;;;;;5035455;28;20181;-89
2021/06/09 01:03:32;;;;;;;20.52;18.75;;;20.60;90.30;;;;;;5037196;28;20176;-90
2021/06/09 01:05:58;;;;;;;20.25;18.75;;;20.70;90.00;;;;;;5035136;28;20200;-90
2021/06/09 01:08:24;;;;;;;17.85;16.45;;;20.70;90.40;;;;;;5036268;28;20181;-90
2021/06/09 01:10:51;;;;;;;19.17;17.73;;;20.70;89.30;;;;;;5035628;28;20568;-90
2021/06/09 01:13:20;;;;;;;17.58;16.17;;;20.70;88.60;;;;;;5018448;28;20204;-91
2021/06/09 01:15:47;;;;;;;19.33;17.77;;;20.70;88.40;;;;;;5034939;28;20196;-90
2021/06/09 01:18:12;;;;;;;18.02;16.40;;;20.70;87.90;;;;;;5036574;28;20337;-90
2021/06/09 01:20:38;;;;;;;18.08;16.70;;;20.70;88.10;;;;;;5036821;28;20196;-91
2021/06/09 01:23:05;;;;;;;17.63;16.08;;;20.80;87.40;;;;;;5044796;28;20213;-89
2021/06/09 01:25:32;;;;;;;17.23;15.80;;;20.70;87.50;;;;;;5042122;28;20199;-91
2021/06/09 01:27:58;;;;;;;17.75;16.35;;;20.70;87.50;;;;;;5036364;28;20177;-91
2021/06/09 01:30:24;;;;;;;17.42;16.10;;;20.80;87.20;;;;;;5035057;28;20303;-91
2021/06/09 01:32:52;;;;;;;17.90;16.40;;;20.70;88.20;;;;;;5035674;28;20204;-90
2021/06/09 01:35:19;;;;;;;17.60;16.25;;;20.70;88.10;;;;;;5035749;28;20177;-90
2021/06/09 01:37:45;;;;;;;18.58;16.98;;;20.70;88.60;;;;;;5037151;28;20177;-91
2021/06/09 01:40:16;;;;;;;16.10;14.77;;;20.70;88.40;;;;;;5033772;28;20199;-92
2021/06/09 01:42:42;;;;;;;19.95;18.20;;;20.70;88.00;;;;;;5017071;28;20603;-91
2021/06/09 01:45:11;;;;;;;18.27;16.77;;;20.70;87.70;;;;;;5036364;28;20179;-91
2021/06/09 01:47:37;;;;;;;18.38;16.83;;;20.50;88.10;;;;;;5031492;28;20178;-90
2021/06/09 01:50:09;;;;;;;17.70;16.40;;;20.60;87.70;;;;;;5015479;28;20304;-91
2021/06/09 01:52:35;;;;;;;18.73;17.33;;;20.60;87.80;;;;;;5016181;28;20232;-92
2021/06/09 01:55:04;;;;;;;20.25;18.75;;;20.60;88.50;;;;;;5017647;28;20228;-92
2021/06/09 01:57:30;;;;;;;19.42;17.80;;;20.60;88.50;;;;;;5015968;28;20204;-92
2021/06/09 01:59:56;;;;;;;18.95;17.45;;;20.50;89.20;;;;;;5016275;28;20209;-91
2021/06/09 02:02:22;;;;;;;17.73;16.25;;;20.50;89.40;;;;;;5034887;28;20568;-91
2021/06/09 02:04:48;;;;;;;18.02;16.63;;;20.50;88.70;;;;;;5035181;28;20246;-91
2021/06/09 02:07:13;;;;;;;20.45;18.83;;;20.60;89.00;;;;;;5035488;28;20196;-92
2021/06/09 02:09:39;;;;;;;19.75;18.05;;;20.60;89.60;;;;;;5034990;28;20208;-91
2021/06/09 02:12:08;;;;;;;19.75;18.17;;;20.50;89.40;;;;;;5017380;28;20208;-90
2021/06/09 02:14:35;;;;;;;19.23;17.63;;;20.50;89.90;;;;;;5035925;28;20232;-91
2021/06/09 02:17:03;;;;;;;19.92;18.17;;;20.40;90.00;;;;;;5035734;28;20231;-90
2021/06/09 02:19:30;;;;;;;22.70;20.90;;;20.30;90.80;;;;;;5018234;28;20247;-91
2021/06/09 02:21:56;;;;;;;21.42;19.73;;;20.00;91.30;;;;;;5019367;28;20241;-91
2021/06/09 02:24:22;;;;;;;20.05;18.48;;;19.90;91.80;;;;;;5018230;28;20190;-91
2021/06/09 02:26:49;;;;;;;19.15;17.42;;;19.80;92.40;;;;;;5035369;28;20188;-91
2021/06/09 02:29:15;;;;;;;19.27;17.77;;;19.80;91.90;;;;;;5035852;28;20204;-92
2021/06/09 02:31:46;;;;;;;16.90;15.60;;;19.70;91.20;;;;;;5022793;28;20199;-92
2021/06/09 02:34:18;;;;;;;19.52;18.02;;;19.80;90.90;;;;;;4998215;28;20187;-91
2021/06/09 02:36:44;;;;;;;18.77;17.17;;;20.00;90.70;;;;;;5015661;28;20172;-91
2021/06/09 02:39:11;;;;;;;20.70;18.95;;;20.00;90.20;;;;;;5015734;28;20221;-92
2021/06/09 02:41:36;;;;;;;19.77;18.00;;;20.10;89.50;;;;;;5015355;28;20252;-92
2021/06/09 02:44:03;;;;;;;16.98;15.55;;;20.10;89.70;;;;;;5015187;28;20808;-91
2021/06/09 02:46:38;;;;;;;18.38;16.70;;;20.10;88.80;;;;;;5014891;28;20380;-90
2021/06/09 02:49:11;;;;;;;17.75;16.38;;;20.10;88.80;;;;;;5016335;28;20183;-91
2021/06/09 02:51:42;;;;;;;19.60;18.00;;;20.10;89.70;;;;;;5018500;28;20199;-90
2021/06/09 02:54:24;;;;;;;18.80;17.35;;;20.00;89.50;;;;;;5016023;28;20155;-91
2021/06/09 02:57:25;;;;;;;17.33;15.93;;;20.00;89.40;;;;;;5015405;28;20154;-90
2021/06/09 03:00:08;;;;;;;18.48;17.00;;;19.90;90.00;;;;;;4968890;28;20572;-91
2021/06/09 03:02:50;;;;;;;18.33;16.83;;;19.90;91.00;;;;;;5013698;28;20851;-91
2021/06/09 03:05:22;;;;;;;18.00;16.52;;;20.00;89.80;;;;;;5014510;28;20697;-90
2021/06/09 03:07:58;;;;;;;19.80;18.10;;;19.90;89.20;;;;;;5016684;28;20215;-91
2021/06/09 03:10:40;;;;;;;18.80;17.17;;;19.90;89.40;;;;;;5015914;28;20236;-92
2021/06/09 03:13:28;;;;;;;18.90;17.38;;;19.90;89.80;;;;;;5017211;28;20205;-92
2021/06/09 03:16:05;;;;;;;18.50;17.10;;;19.90;89.90;;;;;;5035798;28;20224;-92
2021/06/09 03:18:43;;;;;;;17.65;16.17;;;19.90;89.70;;;;;;5035627;28;20226;-92
2021/06/09 03:21:20;;;;;;;18.45;16.88;;;20.00;88.80;;;;;;5035986;28;20165;-91
2021/06/09 03:24:15;;;;;;;18.33;16.73;;;19.90;89.30;;;;;;5035306;28;20168;-92
2021/06/09 03:27:02;;;;;;;17.65;16.25;;;19.90;89.70;;;;;;5016861;28;20191;-92
2021/06/09 03:29:47;;;;;;;17.02;15.63;;;19.90;88.70;;;;;;5032837;28;20205;-90
2021/06/09 03:32:27;;;;;;;17.40;15.90;;;19.80;88.60;;;;;;5015689;28;20195;-90
2021/06/09 03:35:08;;;;;;;18.00;16.13;;;19.80;88.80;;;;;;5015528;28;20332;-91
2021/06/09 03:37:46;;;;;;;16.33;15.02;;;19.70;89.00;;;;;;4997605;28;20226;-90
2021/06/09 03:40:17;;;;;;;17.17;15.82;;;19.70;89.70;;;;;;5015255;28;20685;-92
2021/06/09 03:42:51;;;;;;;16.77;15.38;;;19.70;90.20;;;;;;5013793;28;20593;-91
2021/06/09 03:45:18;;;;;;;18.02;16.58;;;19.80;89.50;;;;;;5015056;28;20177;-92
2021/06/09 03:47:45;;;;;;;18.67;16.92;;;19.80;89.00;;;;;;5016117;28;20297;-90
2021/06/09 03:50:13;;;;;;;19.73;18.23;;;19.80;89.20;;;;;;5015076;28;20242;-91
2021/06/09 03:52:39;;;;;;;18.48;17.13;;;19.80;90.00;;;;;;5012987;28;20671;-91
2021/06/09 03:55:08;;;;;;;18.60;17.08;;;19.80;89.50;;;;;;5013515;28;20199;-92
2021/06/09 03:57:35;;;;;;;17.92;16.60;;;19.90;89.50;;;;;;5014886;28;20210;-91
2021/06/09 04:00:04;;;;;;;19.40;17.80;;;19.80;88.70;;;;;;5014233;28;20185;-92
2021/06/09 04:02:31;;;;;;;18.25;16.83;;;20.00;88.40;;;;;;5014117;28;20272;-90
2021/06/09 04:04:58;;;;;;;20.23;18.52;;;20.00;88.40;;;;;;5016692;28;20189;-91
2021/06/09 04:07:27;;;;;;;19.08;17.58;;;19.90;89.10;;;;;;5000311;28;20283;-91
2021/06/09 04:09:53;;;;;;;18.25;16.65;;;20.00;88.70;;;;;;5018074;28;20647;-90
2021/06/09 04:12:21;;;;;;;19.88;18.02;;;19.90;88.60;;;;;;5018566;28;20197;-92
2021/06/09 04:14:48;;;;;;;19.75;18.15;;;19.90;88.70;;;;;;5019427;28;20357;-92
2021/06/09 04:17:22;;;;;;;17.92;16.40;;;19.90;88.70;;;;;;5000009;28;20621;-91
2021/06/09 04:19:50;;;;;;;17.92;16.45;;;19.90;88.70;;;;;;5002119;28;20191;-92
2021/06/09 04:22:16;;;;;;;20.23;18.73;;;19.90;89.10;;;;;;5001893;28;20214;-92
2021/06/09 04:24:42;;;;;;;19.70;18.20;;;19.80;89.40;;;;;;5019084;28;20204;-92
2021/06/09 04:27:28;;;;;;;19.40;17.83;;;19.80;90.00;;;;;;5018147;28;20723;-92
2021/06/09 04:29:56;;;;;;;20.38;18.63;;;19.70;90.20;;;;;;5023956;28;20634;-92
2021/06/09 04:32:22;;;;;;;19.95;18.33;;;19.70;90.90;;;;;;5043118;28;20191;-92
2021/06/09 04:34:51;;;;;;;18.80;17.33;;;19.60;90.30;;;;;;5029542;28;20251;-92
2021/06/09 04:37:20;;;;;;;18.83;17.38;;;19.60;90.30;;;;;;5022162;28;20182;-92
2021/06/09 04:39:47;;;;;;;18.13;16.60;;;19.50;90.90;;;;;;5029874;28;20180;-91
2021/06/09 04:42:12;;;;;;;20.23;18.65;;;19.70;90.70;;;;;;5031018;28;20294;-91
2021/06/09 04:44:40;;;;;;;18.85;17.35;;;19.70;90.50;;;;;;5043659;28;20203;-91
2021/06/09 04:47:06;;;;;;;17.92;16.55;;;19.60;90.60;;;;;;5041378;28;20191;-91
2021/06/09 04:49:37;;;;;;;19.50;17.90;;;19.60;90.80;;;;;;5038958;28;20269;-91
2021/06/09 04:52:04;;;;;;;20.30;18.67;;;19.60;91.00;;;;;;5039789;28;20269;-91
2021/06/09 04:54:30;;;;;;;16.35;15.15;;;19.70;91.00;;;;;;5042371;28;20204;-93
2021/06/09 04:56:56;;;;;;;21.48;19.77;;;19.70;90.40;;;;;;5042709;28;20196;-92
2021/06/09 04:59:23;;;;;;;18.70;17.10;;;19.60;91.90;;;;;;5024336;28;20180;-91
2021/06/09 05:01:49;;;;;;;21.67;20.00;;;19.60;91.40;;;;;;5035103;28;20201;-91
2021/06/09 05:04:15;;;;;;;22.52;20.55;;;19.60;92.30;;;;;;5033611;28;20188;-91
2021/06/09 05:06:41;;;;;;;19.45;17.95;;;19.40;92.90;;;;;;5029183;28;20170;-91
2021/06/09 05:09:08;;;;;;;20.90;19.20;;;19.60;92.10;;;;;;5014433;28;20275;-91
2021/06/09 05:11:43;;;;;;;23.88;21.85;;;19.60;92.20;;;;;;5025654;28;20214;-91
2021/06/09 05:14:36;;;;;;;25.15;23.05;;;19.70;92.30;;;;;;5031193;28;20301;-91
2021/06/09 05:17:04;;;;;;;21.52;19.92;;;19.60;92.30;;;;;;5017729;28;20694;-90
2021/06/09 05:19:31;;;;;;;22.13;20.10;;;19.70;92.20;;;;;;5003148;28;20180;-91
2021/06/09 05:22:14;;;;;;;22.40;20.65;;;19.70;91.20;;;;;;5020536;28;20204;-91
2021/06/09 05:24:40;;;;;;;21.63;19.92;;;19.70;91.40;;;;;;5028719;28;20163;-91
2021/06/09 05:27:09;;;;;;;22.25;20.45;;;19.60;90.70;;;;;;5040706;28;20514;-91
2021/06/09 05:29:38;;;;;;;20.70;18.90;;;19.70;90.70;;;;;;5050002;28;20211;-92
2021/06/09 05:32:05;;;;;;;20.20;18.70;;;19.60;90.70;;;;;;5024145;28;20213;-91
2021/06/09 05:34:34;;;;;;;20.15;18.65;;;19.70;90.60;;;;;;5026268;28;20181;-91
2021/06/09 05:37:00;;;;;;;19.52;17.85;;;19.70;91.00;;;;;;5027707;28;20196;-91
2021/06/09 05:39:26;;;;;;;18.92;17.42;;;19.80;90.20;;;;;;5030483;28;20178;-91
2021/06/09 05:41:52;;;;;;;18.60;17.13;;;19.70;90.30;;;;;;5015788;28;20221;-92
2021/06/09 05:44:18;;;;;;;18.65;16.95;;;19.60;90.00;;;;;;5034165;28;20547;-91
2021/06/09 05:46:45;;;;;;;18.52;16.85;;;19.80;89.50;;;;;;5031983;28;20201;-91
2021/06/09 05:49:24;;;;;;;18.08;16.77;;;19.90;88.90;;;;;;5020244;28;20670;-91
2021/06/09 05:51:51;;;;;;;18.95;17.45;;;19.90;88.80;;;;;;5032290;28;20238;-91
2021/06/09 05:54:18;;;;;;;18.20;16.70;;;20.00;88.50;;;;;;5033864;28;20280;-91
2021/06/09 05:56:44;;;;;;;18.30;16.83;;;20.00;88.70;;;;;;5019180;28;20185;-92
2021/06/09 05:59:12;;;;;;;19.52;17.92;;;20.00;88.60;;;;;;5021505;28;20200;-92
2021/06/09 06:01:39;;;;;;;18.00;16.48;;;19.90;89.10;;;;;;5018468;28;20384;-92
2021/06/09 06:04:06;;;;;;;17.20;15.70;;;19.80;89.20;;;;;;5021006;28;20189;-92
2021/06/09 06:06:33;;;;;;;17.85;16.35;;;19.80;89.80;;;;;;5018794;28;20207;-91
2021/06/09 06:08:58;;;;;;;19.05;17.48;;;19.80;88.60;;;;;;5018779;28;20194;-92
2021/06/09 06:11:25;;;;;;;18.38;16.67;;;19.90;89.40;;;;;;5017849;28;20210;-91
2021/06/09 06:13:51;;;;;;;19.27;17.67;;;19.90;88.90;;;;;;5018621;28;20189;-91
2021/06/09 06:16:19;;;;;;;18.30;16.58;;;19.80;89.70;;;;;;5023430;28;20185;-92
2021/06/09 06:18:46;;;;;;;19.05;17.45;;;19.80;88.60;;;;;;5037037;28;20185;-92
2021/06/09 06:21:14;;;;;;;18.58;17.17;;;19.80;89.20;;;;;;5031080;28;20188;-86
2021/06/09 06:23:40;;;;;;;18.35;16.75;;;20.10;88.70;;;;;;5020452;28;20260;-87
2021/06/09 06:26:07;;;;;;;19.48;18.05;;;20.10;88.20;;;;;;5028427;28;20182;-87
2021/06/09 06:28:33;;;;;;;18.75;17.23;;;20.10;89.00;;;;;;5027674;28;20193;-86
2021/06/09 06:31:01;;;;;;;20.23;18.45;;;20.10;88.40;;;;;;5037960;28;20206;-86
2021/06/09 06:33:28;;;;;;;20.55;18.77;;;20.10;90.00;;;;;;5041084;28;20197;-86
2021/06/09 06:35:58;;;;;;;19.30;17.83;;;20.30;88.50;;;;;;5040603;28;20552;-86
2021/06/09 06:38:24;;;;;;;19.90;18.20;;;20.20;88.80;;;;;;5029178;28;20181;-87
2021/06/09 06:40:52;;;;;;;20.33;18.65;;;20.30;89.50;;;;;;5032551;28;20260;-86
2021/06/09 06:43:20;;;;;;;19.75;17.92;;;20.20;89.80;;;;;;5026608;28;20222;-86
2021/06/09 06:45:46;;;;;;;19.33;17.63;;;20.40;88.80;;;;;;5014657;28;20193;-86
2021/06/09 06:48:12;;;;;;;19.50;17.83;;;20.50;88.00;;;;;;5018300;28;20270;-86
2021/06/09 06:50:38;;;;;;;19.45;17.95;;;20.60;86.90;;;;;;5032270;28;20292;-86
2021/06/09 06:53:08;;;;;;;20.50;18.85;;;20.70;86.60;;;;;;5031308;28;20207;-86
2021/06/09 06:55:34;;;;;;;18.33;16.80;;;20.90;85.60;;;;;;5033034;28;20628;-86
2021/06/09 06:58:00;;;;;;;19.58;17.88;;;21.00;85.50;;;;;;5024018;28;20192;-86
2021/06/09 07:00:27;;;;;;;18.45;16.90;;;21.00;84.70;;;;;;5026994;28;20188;-87
2021/06/09 07:02:55;;;;;;;21.15;19.30;;;21.10;83.50;;;;;;5021635;28;20589;-86
2021/06/09 07:05:24;;;;;;;19.00;17.42;;;21.20;82.80;;;;;;5015658;28;20665;-87
2021/06/09 07:07:51;;;;;;;19.42;17.83;;;21.20;82.70;;;;;;5013595;28;20299;-87
2021/06/09 07:10:18;;;;;;;16.88;15.68;;;21.30;80.40;;;;;;5015026;28;20487;-87
2021/06/09 07:12:45;;;;;;;20.35;18.60;;;21.50;80.50;;;;;;5013070;28;20433;-87
2021/06/09 07:15:17;;;;;;;16.67;15.38;;;21.40;81.10;;;;;;5026046;28;20240;-87
2021/06/09 07:17:52;;;;;;;18.02;16.73;;;21.30;81.10;;;;;;5036122;28;20173;-87
2021/06/09 07:20:23;;;;;;;19.25;17.55;;;21.50;77.60;;;;;;5039282;28;20223;-87
2021/06/09 07:22:50;;;;;;;20.27;18.58;;;21.70;79.10;;;;;;5019647;28;20227;-87
2021/06/09 07:25:17;;;;;;;19.75;18.15;;;21.80;78.50;;;;;;5033962;28;20223;-87
2021/06/09 07:27:48;;;;;;;20.38;18.73;;;21.90;78.20;;;;;;5022255;28;20204;-87
2021/06/09 07:30:17;;;;;;;20.42;18.73;;;21.90;76.60;;;;;;5030399;28;20211;-87
2021/06/09 07:32:44;;;;;;;20.42;18.83;;;21.90;79.10;;;;;;5040869;28;20330;-87
2021/06/09 07:35:12;;;;;;;20.20;18.60;;;22.00;79.40;;;;;;5038171;28;20206;-87
2021/06/09 07:37:45;;;;;;;19.98;18.48;;;21.90;81.00;;;;;;5023172;28;20185;-87
2021/06/09 07:40:19;;;;;;;21.25;19.60;;;22.00;80.60;;;;;;5042064;28;20181;-87
2021/06/09 07:42:54;;;;;;;20.10;18.50;;;22.10;79.40;;;;;;5036115;28;20259;-87
2021/06/09 07:45:22;;;;;;;21.67;19.95;;;22.30;79.70;;;;;;5039229;28;20267;-87
2021/06/09 07:47:50;;;;;;;22.17;20.48;;;22.30;78.20;;;;;;5037233;28;20193;-87
2021/06/09 07:50:29;;;;;;;22.65;20.73;;;22.10;79.20;;;;;;5016905;28;20254;-87
2021/06/09 07:53:04;;;;;;;22.38;20.48;;;22.20;79.50;;;;;;5026381;28;20198;-87
2021/06/09 07:55:31;;;;;;;20.05;18.33;;;22.30;79.10;;;;;;5031635;28;20238;-87
2021/06/09 07:57:58;;;;;;;21.48;19.67;;;22.30;79.30;;;;;;5030440;28;20178;-87
2021/06/09 08:00:25;;;;;;;21.67;19.90;;;22.50;80.20;;;;;;5026548;28;20640;-87
2021/06/09 08:02:53;;;;;;;23.98;22.02;;;22.70;78.30;;;;;;5010586;28;20213;-86
2021/06/09 08:05:19;;;;;;;24.92;22.63;;;22.60;77.70;;;;;;5016656;28;20174;-87
2021/06/09 08:07:44;;;;;;;21.98;20.08;;;22.60;78.00;;;;;;5031853;28;20193;-87
2021/06/09 08:10:12;;;;;;;24.02;22.13;;;22.80;77.30;;;;;;5014062;28;20206;-87
2021/06/09 08:12:38;;;;;;;24.08;22.25;;;23.00;76.40;;;;;;5021174;28;20208;-87
2021/06/09 08:15:07;;;;;;;22.92;21.17;;;23.30;75.90;;;;;;5032672;28;20690;-87
2021/06/09 08:17:33;;;;;;;23.73;21.75;;;23.50;77.00;;;;;;5016505;28;20189;-86
2021/06/09 08:19:58;;;;;;;26.25;24.20;;;23.70;74.90;;;;;;5037193;28;20734;-87
2021/06/09 08:22:24;;;;;;;26.73;24.48;;;23.90;74.50;;;;;;5037569;28;20660;-87
2021/06/09 08:24:50;;;;;;;26.90;24.70;;;24.00;71.80;;;;;;5019763;28;20188;-87
2021/06/09 08:27:16;;;;;;;28.08;25.77;;;24.00;71.00;;;;;;5036563;28;20280;-87
2021/06/09 08:29:42;;;;;;;28.98;26.52;;;23.70;71.70;;;;;;5037821;28;20201;-87
2021/06/09 08:32:08;;;;;;;29.58;27.17;;;23.70;74.10;;;;;;5023153;28;20198;-88
2021/06/09 08:34:35;;;;;;;28.67;26.48;;;23.70;73.00;;;;;;5016893;28;20209;-86
2021/06/09 08:37:01;;;;;;;29.80;27.30;;;23.70;71.60;;;;;;5029518;28;20196;-86
2021/06/09 08:39:27;;;;;;;28.10;25.70;;;23.70;71.60;;;;;;5037339;28;20194;-86
2021/06/09 08:41:55;;;;;;;27.45;25.25;;;23.80;72.20;;;;;;5023622;28;20208;-86
2021/06/09 08:44:22;;;;;;;25.98;23.65;;;23.70;71.90;;;;;;5030610;28;20227;-86
2021/06/09 08:46:49;;;;;;;25.92;23.83;;;23.60;72.80;;;;;;5026860;28;20192;-86
2021/06/09 08:49:17;;;;;;;24.02;22.08;;;23.70;73.50;;;;;;5017533;28;20178;-86
2021/06/09 08:51:43;;;;;;;26.98;24.88;;;23.90;72.30;;;;;;5001367;28;20236;-86
2021/06/09 08:54:09;;;;;;;25.02;23.02;;;23.90;72.20;;;;;;5005049;28;20181;-86
2021/06/09 08:56:37;;;;;;;25.55;23.50;;;24.00;74.20;;;;;;5019206;28;20178;-86
2021/06/09 08:59:05;;;;;;;26.10;23.75;;;24.20;73.70;;;;;;5034248;28;20779;-87
2021/06/09 09:01:33;;;;;;;26.10;24.08;;;24.50;71.80;;;;;;5033285;28;20208;-87
2021/06/09 09:03:59;;;;;;;23.95;21.90;;;24.30;73.40;;;;;;5029027;28;20532;-87
2021/06/09 09:06:25;;;;;;;24.50;22.50;;;24.40;73.50;;;;;;5025766;28;20194;-87
2021/06/09 09:08:54;;;;;;;25.73;23.50;;;24.40;72.10;;;;;;5018620;28;20192;-87
2021/06/09 09:11:23;;;;;;;22.02;20.25;;;24.40;71.40;;;;;;5018263;28;20268;-87
2021/06/09 09:13:49;;;;;;;22.42;20.63;;;24.40;72.00;;;;;;5021335;28;20181;-87
2021/06/09 09:16:15;;;;;;;22.70;20.85;;;24.70;71.60;;;;;;5019363;28;20203;-87
2021/06/09 09:18:54;;;;;;;23.85;21.60;;;24.80;71.70;;;;;;5016030;28;20177;-87
2021/06/09 09:21:52;;;;;;;23.95;22.05;;;24.90;71.60;;;;;;5022905;28;20189;-87
2021/06/09 09:24:35;;;;;;;24.70;22.70;;;25.30;70.80;;;;;;4998967;28;20741;-87
2021/06/09 09:27:01;;;;;;;24.92;22.75;;;25.40;67.60;;;;;;5025389;28;20534;-87
2021/06/09 09:29:27;;;;;;;25.05;23.05;;;25.60;67.50;;;;;;5021246;28;20184;-86
2021/06/09 09:31:58;;;;;;;25.40;23.20;;;25.80;66.10;;;;;;5030158;28;20213;-86
2021/06/09 09:34:31;;;;;;;23.60;21.67;;;25.80;66.50;;;;;;5026429;28;20197;-86
2021/06/09 09:37:20;;;;;;;22.23;20.58;;;25.90;65.30;;;;;;5035254;28;20165;-86
2021/06/09 09:39:49;;;;;;;21.65;19.85;;;25.90;65.70;;;;;;5027276;28;20196;-88
2021/06/09 09:42:35;;;;;;;20.13;18.63;;;25.90;65.70;;;;;;5011471;28;20271;-86
2021/06/09 09:45:21;;;;;;;21.60;19.80;;;26.20;66.50;;;;;;5035904;28;20252;-86
2021/06/09 09:48:16;;;;;;;22.20;20.50;;;26.40;66.30;;;;;;5038943;28;20181;-89
2021/06/09 09:50:44;;;;;;;22.00;20.20;;;26.70;62.40;;;;;;5036363;28;20259;-92
2021/06/09 09:53:21;;;;;;;19.65;18.02;;;26.80;62.20;;;;;;5036453;28;20252;-90
2021/06/09 09:56:02;;;;;;;17.05;15.70;;;27.10;60.70;;;;;;5037191;28;20227;-89
2021/06/09 09:58:28;;;;;;;17.50;16.00;;;27.20;58.20;;;;;;5012495;28;20177;-90
2021/06/09 10:01:15;;;;;;;16.85;15.55;;;27.30;55.00;;;;;;5018992;28;20181;-91
2021/06/09 10:03:43;;;;;;;17.90;16.58;;;27.40;56.80;;;;;;5029412;28;20224;-92
2021/06/09 10:06:21;;;;;;;16.50;15.10;;;27.40;55.80;;;;;;5028255;28;20363;-91
2021/06/09 10:08:47;;;;;;;15.60;14.35;;;27.50;56.90;;;;;;5012835;28;20192;-90
2021/06/09 10:11:14;;;;;;;15.65;14.43;;;27.10;57.70;;;;;;5037640;28;20201;-91
2021/06/09 10:13:41;;;;;;;16.05;14.75;;;27.10;56.70;;;;;;5041812;28;20188;-90
2021/06/09 10:16:32;;;;;;;16.17;14.93;;;27.20;57.30;;;;;;5032400;28;20189;-90
2021/06/09 10:19:08;;;;;;;15.70;14.27;;;27.30;57.10;;;;;;5021231;28;20212;-91
2021/06/09 10:21:54;;;;;;;17.67;16.00;;;27.40;55.60;;;;;;5016685;28;20803;-88
2021/06/09 10:24:22;;;;;;;15.93;14.48;;;27.90;56.00;;;;;;5018807;28;20738;-90
2021/06/09 10:26:56;;;;;;;15.10;14.00;;;28.20;56.00;;;;;;5010717;28;20199;-89
2021/06/09 10:29:23;;;;;;;15.40;14.05;;;28.30;54.00;;;;;;5040996;28;20532;-89
2021/06/09 10:31:57;;;;;;;16.13;14.75;;;28.60;54.40;;;;;;5037625;28;20304;-90
2021/06/09 10:34:30;;;;;;;14.48;13.27;;;28.80;52.60;;;;;;5037818;28;20157;-91
2021/06/09 10:36:57;;;;;;;15.73;14.35;;;28.90;51.80;;;;;;5029436;28;20204;-92
2021/06/09 10:39:27;;;;;;;16.20;14.98;;;29.00;54.20;;;;;;5017999;28;20633;-91
2021/06/09 10:41:59;;;;;;;13.73;12.82;;;29.10;51.70;;;;;;5017297;28;20281;-90
2021/06/09 10:44:30;;;;;;;14.88;13.85;;;29.30;51.50;;;;;;5018574;28;20188;-89
2021/06/09 10:46:58;;;;;;;15.98;14.70;;;29.10;52.90;;;;;;5028488;28;20860;-94
2021/06/09 10:49:25;;;;;;;17.63;16.42;;;28.90;53.40;;;;;;5036476;28;20232;-91
2021/06/09 10:51:55;;;;;;;15.73;14.63;;;28.90;51.50;;;;;;5039706;28;20346;-89
2021/06/09 10:54:24;;;;;;;15.68;13.13;;;28.90;51.50;;;;;;5039674;28;20181;-90
2021/06/09 10:56:51;;;;;;;14.77;13.75;;;28.70;51.30;;;;;;5032592;28;20212;-90
2021/06/09 10:59:26;;;;;;;12.95;12.10;;;28.60;51.70;;;;;;5033222;28;20360;-90
2021/06/09 11:02:06;;;;;;;13.05;12.15;;;28.40;52.30;;;;;;5037078;28;20235;-90
2021/06/09 11:04:46;;;;;;;14.60;13.52;;;28.10;51.00;;;;;;5036764;28;20165;-90
2021/06/09 11:07:34;;;;;;;14.38;13.25;;;27.80;53.20;;;;;;5033785;28;20275;-90
2021/06/09 11:10:05;;;;;;;13.27;12.20;;;27.60;54.30;;;;;;5018099;28;20216;-90
2021/06/09 11:12:55;;;;;;;12.48;11.43;;;27.30;52.30;;;;;;5035728;28;20208;-91
2021/06/09 11:15:23;;;;;;;12.13;11.20;;;27.10;53.60;;;;;;5026944;28;20173;-91
2021/06/09 11:17:57;;;;;;;12.25;11.35;;;26.90;54.00;;;;;;5020876;28;20686;-89
2021/06/09 11:20:32;;;;;;;12.95;11.70;;;26.80;55.40;;;;;;5039363;28;20235;-90
2021/06/09 11:23:05;;;;;;;12.70;11.75;;;26.90;55.90;;;;;;5038836;28;20223;-90
2021/06/09 11:25:34;;;;;;;13.43;12.00;;;26.90;55.70;;;;;;5038773;28;20295;-90
2021/06/09 11:28:01;;;;;;;13.05;11.70;;;26.90;56.60;;;;;;5039492;28;20185;-90
2021/06/09 11:30:30;;;;;;;11.93;11.13;;;26.80;56.80;;;;;;5038537;28;20204;-90
2021/06/09 11:33:01;;;;;;;13.27;12.20;;;26.90;57.40;;;;;;5017240;28;20820;-90
2021/06/09 11:35:47;;;;;;;13.60;12.50;;;26.70;57.30;;;;;;5019063;28;20162;-91
2021/06/09 11:38:13;;;;;;;13.25;12.10;;;26.70;59.10;;;;;;5017294;28;20239;-91
2021/06/09 11:41:10;;;;;;;12.57;11.68;;;26.60;59.50;;;;;;5018506;28;20182;-90
2021/06/09 11:43:43;;;;;;;13.68;12.60;;;26.70;59.40;;;;;;5012243;28;20202;-90
2021/06/09 11:46:29;;;;;;;13.25;12.00;;;26.60;60.00;;;;;;5021492;28;20192;-90
2021/06/09 11:48:58;;;;;;;13.77;12.80;;;26.60;61.30;;;;;;5018771;28;20201;-91
2021/06/09 11:51:41;;;;;;;14.45;13.43;;;26.60;61.40;;;;;;5018041;28;20209;-91
2021/06/09 11:54:16;;;;;;;14.70;13.70;;;26.70;61.10;;;;;;5020231;28;20264;-90
2021/06/09 11:56:50;;;;;;;16.92;15.50;;;26.80;61.30;;;;;;5020987;28;20153;-90
2021/06/09 11:59:29;;;;;;;16.42;15.23;;;26.90;60.00;;;;;;5036132;28;20164;-90
2021/06/09 12:01:59;;;;;;;16.48;14.98;;;27.10;59.50;;;;;;5040311;28;20240;-91
2021/06/09 12:04:28;;;;;;;17.35;15.85;;;27.30;60.80;;;;;;5045941;28;20227;-87
2021/06/09 12:07:02;;;;;;;17.67;16.38;;;27.70;57.50;;;;;;5042004;28;20185;-87
2021/06/09 12:09:36;;;;;;;18.92;17.42;;;28.10;56.80;;;;;;5041737;28;20196;-91
2021/06/09 12:12:14;;;;;;;17.90;16.55;;;28.30;54.60;;;;;;5041701;28;20220;-90
2021/06/09 12:14:46;;;;;;;16.33;15.13;;;28.70;56.10;;;;;;5041818;28;20216;-91
2021/06/09 12:17:12;;;;;;;18.40;16.90;;;29.30;56.00;;;;;;5041466;28;20185;-91
2021/06/09 12:19:40;;;;;;;17.65;16.30;;;29.70;52.70;;;;;;5023924;28;20177;-90
2021/06/09 12:22:10;;;;;;;14.93;13.65;;;30.10;52.40;;;;;;5042391;28;20201;-91
2021/06/09 12:24:37;;;;;;;14.05;12.95;;;30.00;50.50;;;;;;5044949;28;20277;-91
2021/06/09 12:27:09;;;;;;;13.27;12.32;;;30.30;49.50;;;;;;5041837;28;20185;-92
2021/06/09 12:29:41;;;;;;;13.80;12.70;;;30.10;49.00;;;;;;5043449;28;20248;-91
2021/06/09 12:32:16;;;;;;;15.85;14.65;;;30.20;48.20;;;;;;5045264;28;20331;-93
2021/06/09 12:34:42;;;;;;;15.35;14.10;;;30.80;49.00;;;;;;5047082;28;20173;-91
2021/06/09 12:37:09;;;;;;;14.23;13.15;;;31.00;49.40;;;;;;5047781;28;20215;-92
2021/06/09 12:39:36;;;;;;;13.48;12.43;;;31.30;48.10;;;;;;5046463;28;20758;-93
2021/06/09 12:42:10;;;;;;;13.80;12.80;;;31.30;46.40;;;;;;5046062;28;20219;-92
2021/06/09 12:44:42;;;;;;;14.90;13.90;;;31.40;45.00;;;;;;5031213;28;20203;-92
2021/06/09 12:47:08;;;;;;;13.63;12.73;;;31.40;45.30;;;;;;5034330;28;20196;-90